createdAt,value
2022-08-26T11:20:31.779Z,27.16
2022-08-26T11:22:37.124Z,27.16
2022-08-26T11:24:51.452Z,27.23
2022-08-26T11:26:56.724Z,27.34
2022-08-26T11:29:03.028Z,27.48
2022-08-26T11:31:16.602Z,27.53
2022-08-26T11:33:23.572Z,27.6
2022-08-26T11:35:28.095Z,27.65
2022-08-26T11:37:34.354Z,27.71
2022-08-26T11:39:46.471Z,27.81
2022-08-26T11:41:59.832Z,27.9
2022-08-26T11:44:04.502Z,27.99
2022-08-26T11:46:09.457Z,28.07
2022-08-26T11:48:15.170Z,28.16
2022-08-26T11:50:19.798Z,28.26
2022-08-26T11:52:24.317Z,28.31
2022-08-26T11:54:35.456Z,28.37
2022-08-26T11:56:40.315Z,28.42
2022-08-26T11:58:45.273Z,28.44
2022-08-26T12:00:49.888Z,28.47
2022-08-26T12:02:54.390Z,28.49
2022-08-26T12:05:00.133Z,28.49
2022-08-26T12:07:05.875Z,28.52
2022-08-26T12:09:13.265Z,28.61
2022-08-26T12:11:21.889Z,28.63
2022-08-26T12:13:27.014Z,28.72
2022-08-26T12:15:35.110Z,28.78
2022-08-26T12:17:40.701Z,28.81
2022-08-26T12:19:45.392Z,28.82
2022-08-26T12:21:50.012Z,28.87
2022-08-26T12:23:54.941Z,28.92
2022-08-26T12:25:59.943Z,28.97
2022-08-26T12:28:06.535Z,29.01
2022-08-26T12:30:12.309Z,29.04
2022-08-26T12:32:22.855Z,29.09
2022-08-26T12:34:31.005Z,29.11
2022-08-26T12:36:35.998Z,29.13
2022-08-26T12:38:40.819Z,29.12
2022-08-26T12:40:45.542Z,29.11
2022-08-26T12:42:50.367Z,29.17
2022-08-26T12:44:55.188Z,29.23
2022-08-26T12:46:59.877Z,29.27
2022-08-26T12:49:04.752Z,29.29
2022-08-26T12:51:09.572Z,29.28
2022-08-26T12:53:14.324Z,29.32
2022-08-26T12:55:19.114Z,29.35
2022-08-26T12:57:23.842Z,29.34
2022-08-26T12:59:28.588Z,29.36
2022-08-26T13:01:33.599Z,29.37
2022-08-26T13:03:38.530Z,29.37
2022-08-26T13:05:43.245Z,29.34
2022-08-26T13:07:47.979Z,29.27
2022-08-26T13:09:52.700Z,29.24
2022-08-26T13:11:57.380Z,29.2
2022-08-26T13:14:06.851Z,29.26
2022-08-26T13:16:12.767Z,29.35
2022-08-26T13:18:17.632Z,29.45
2022-08-26T13:20:22.455Z,29.49
2022-08-26T13:22:27.327Z,29.56
2022-08-26T13:24:32.111Z,29.62
2022-08-26T13:26:36.836Z,29.68
2022-08-26T13:28:41.487Z,29.72
2022-08-26T13:30:46.184Z,29.77
2022-08-26T13:32:51.007Z,29.72
2022-08-26T13:34:57.371Z,29.64
2022-08-26T13:37:08.441Z,29.54
2022-08-26T13:39:13.163Z,29.44
2022-08-26T13:41:17.888Z,29.32
2022-08-26T13:43:33.673Z,29.26
2022-08-26T13:45:38.489Z,29.27
2022-08-26T13:47:43.325Z,29.23
2022-08-26T13:49:48.150Z,29.2
2022-08-26T13:51:52.876Z,29.22
2022-08-26T13:53:57.605Z,29.21
2022-08-26T13:56:02.426Z,29.27
2022-08-26T13:58:13.495Z,29.28
2022-08-26T14:00:18.220Z,29.33
2022-08-26T14:02:23.967Z,29.31
2022-08-26T14:04:28.687Z,29.3
2022-08-26T14:06:33.518Z,29.31
2022-08-26T14:08:38.345Z,29.28
2022-08-26T14:10:43.120Z,29.26
2022-08-26T14:12:47.890Z,29.23
2022-08-26T14:14:52.817Z,29.19
2022-08-26T14:16:59.881Z,29.16
2022-08-26T14:19:05.036Z,29.21
2022-08-26T14:21:09.860Z,29.2
2022-08-26T14:23:14.730Z,29.19
2022-08-26T14:25:19.618Z,29.18
2022-08-26T14:27:24.442Z,29.2
2022-08-26T14:29:29.164Z,29.18
2022-08-26T14:31:33.890Z,29.21
2022-08-26T14:33:38.922Z,29.23
2022-08-26T14:35:48.025Z,29.22
2022-08-26T14:37:53.784Z,29.23
2022-08-26T14:39:58.545Z,29.21
2022-08-26T14:42:03.450Z,29.19
2022-08-26T14:44:08.884Z,29.24
2022-08-26T14:46:15.194Z,29.21
2022-08-26T14:48:20.386Z,29.21
2022-08-26T14:50:25.433Z,29.19
2022-08-26T14:52:30.241Z,29.18
2022-08-26T14:54:34.835Z,29.15
2022-08-26T14:56:39.621Z,29.13
2022-08-26T14:58:44.405Z,29.13
2022-08-26T15:00:49.236Z,29.14
2022-08-26T15:02:54.048Z,29.15
2022-08-26T15:04:59.296Z,29.13
2022-08-26T15:07:04.116Z,29.09
2022-08-26T15:09:08.848Z,29.11
2022-08-26T15:11:13.674Z,29.11
2022-08-26T15:13:18.504Z,29.09
2022-08-26T15:15:23.328Z,29.06
2022-08-26T15:17:28.094Z,29.04
2022-08-26T15:19:32.875Z,29.01
2022-08-26T15:21:37.701Z,28.95
2022-08-26T15:23:42.527Z,28.92
2022-08-26T15:25:52.448Z,28.93
2022-08-26T15:27:57.198Z,28.93
2022-08-26T15:30:01.813Z,28.94
2022-08-26T15:32:06.421Z,28.95
2022-08-26T15:34:14.492Z,28.96
2022-08-26T15:36:21.017Z,28.98
2022-08-26T15:38:25.733Z,28.96
2022-08-26T15:40:30.609Z,28.95
2022-08-26T15:42:35.512Z,28.93
2022-08-26T15:44:40.232Z,28.93
2022-08-26T15:46:45.103Z,28.92
2022-08-26T15:48:50.076Z,28.9
2022-08-26T15:50:54.789Z,28.86
2022-08-26T15:52:59.406Z,28.85
2022-08-26T15:57:11.429Z,28.85
2022-08-26T15:59:22.562Z,28.85
2022-08-26T16:01:27.992Z,28.85
2022-08-26T16:03:32.864Z,28.86
2022-08-26T16:05:37.771Z,28.84
2022-08-26T16:07:42.820Z,28.86
2022-08-26T16:09:47.644Z,28.86
2022-08-26T16:11:59.024Z,28.84
2022-08-26T16:14:03.750Z,28.85
2022-08-26T16:16:08.647Z,28.86
2022-08-26T16:18:13.702Z,28.85
2022-08-26T16:20:18.439Z,28.83
2022-08-26T16:22:23.263Z,28.83
2022-08-26T16:24:35.872Z,28.83
2022-08-26T16:26:41.715Z,28.82
2022-08-26T16:28:46.348Z,28.81
2022-08-26T16:30:51.109Z,28.82
2022-08-26T16:32:56.077Z,28.83
2022-08-26T16:35:00.709Z,28.84
2022-08-26T16:37:05.346Z,28.83
2022-08-26T16:39:10.071Z,28.82
2022-08-26T16:41:14.883Z,28.81
2022-08-26T16:43:19.716Z,28.81
2022-08-26T16:45:24.432Z,28.8
2022-08-26T16:47:29.166Z,28.81
2022-08-26T16:49:33.989Z,28.79
2022-08-26T16:51:38.715Z,28.75
2022-08-26T16:53:43.539Z,28.7
2022-08-26T16:55:48.100Z,28.69
2022-08-26T16:57:52.886Z,28.67
2022-08-26T16:59:57.708Z,28.67
2022-08-26T17:02:02.742Z,28.68
2022-08-26T17:04:07.564Z,28.7
2022-08-26T17:06:12.295Z,28.7
2022-08-26T17:08:24.261Z,28.75
2022-08-26T17:10:33.600Z,28.79
2022-08-26T17:12:38.647Z,28.8
2022-08-26T17:14:43.367Z,28.81
2022-08-26T17:16:50.546Z,28.85
2022-08-26T17:18:55.379Z,28.86
2022-08-26T17:21:00.101Z,28.86
2022-08-26T17:23:04.825Z,28.88
2022-08-26T17:25:09.749Z,28.87
2022-08-26T17:27:14.465Z,28.86
2022-08-26T17:29:18.981Z,28.86
2022-08-26T17:31:24.588Z,28.8
2022-08-26T17:33:29.563Z,28.78
2022-08-26T17:35:34.597Z,28.74
2022-08-26T17:37:39.206Z,28.72
2022-08-26T17:39:43.829Z,28.68
2022-08-26T17:41:48.452Z,28.67
2022-08-26T17:43:52.972Z,28.65
2022-08-26T17:45:57.494Z,28.62
2022-08-26T17:48:11.524Z,28.6
2022-08-26T17:50:16.152Z,28.6
2022-08-26T17:52:20.672Z,28.58
2022-08-26T17:54:25.192Z,28.56
2022-08-26T17:56:33.703Z,28.57
2022-08-26T17:58:38.222Z,28.57
2022-08-26T18:00:42.950Z,28.57
2022-08-26T18:02:47.402Z,28.61
2022-08-26T18:04:51.980Z,28.61
2022-08-26T18:06:56.499Z,28.61
2022-08-26T18:09:01.019Z,28.6
2022-08-26T18:11:05.537Z,28.6
2022-08-26T18:13:10.140Z,28.62
2022-08-26T18:15:14.988Z,28.61
2022-08-26T18:17:19.594Z,28.57
2022-08-26T18:19:24.126Z,28.52
2022-08-26T18:21:28.583Z,28.5
2022-08-26T18:23:33.159Z,28.49
2022-08-26T18:25:37.682Z,28.47
2022-08-26T18:27:42.199Z,28.46
2022-08-26T18:29:46.821Z,28.44
2022-08-26T18:31:51.341Z,28.42
2022-08-26T18:33:55.962Z,28.38
2022-08-26T18:36:00.482Z,28.37
2022-08-26T18:38:07.723Z,28.34
2022-08-26T18:40:17.022Z,28.3
2022-08-26T18:42:21.761Z,28.26
2022-08-26T18:44:26.336Z,28.24
2022-08-26T18:46:30.922Z,28.22
2022-08-26T18:48:35.579Z,28.23
2022-08-26T18:50:40.095Z,28.26
2022-08-26T18:52:49.806Z,28.3
2022-08-26T18:54:54.237Z,28.33
2022-08-26T18:56:58.664Z,28.38
2022-08-26T18:59:05.241Z,28.42
2022-08-26T19:01:10.050Z,28.42
2022-08-26T19:03:17.323Z,28.42
2022-08-26T19:05:23.811Z,28.42
2022-08-26T19:07:28.945Z,28.43
2022-08-26T19:09:33.463Z,28.46
2022-08-26T19:11:42.247Z,28.47
2022-08-26T19:13:48.338Z,28.47
2022-08-26T19:15:55.208Z,28.48
2022-08-26T19:17:59.682Z,28.46
2022-08-26T19:20:04.242Z,28.47
2022-08-26T19:22:08.868Z,28.45
2022-08-26T19:24:13.378Z,28.42
2022-08-26T19:26:18.103Z,28.39
2022-08-26T19:28:22.648Z,28.35
2022-08-26T19:30:28.006Z,28.34
2022-08-26T19:32:35.757Z,28.32
2022-08-26T19:34:40.181Z,28.34
2022-08-26T19:36:44.785Z,28.36
2022-08-26T19:38:51.361Z,28.35
2022-08-26T19:40:55.879Z,28.32
2022-08-26T19:43:00.397Z,28.26
2022-08-26T19:45:04.983Z,28.24
2022-08-26T19:47:11.691Z,28.25
2022-08-26T19:49:16.411Z,28.26
2022-08-26T19:51:21.138Z,28.22
2022-08-26T19:53:25.652Z,28.24
2022-08-26T19:55:30.172Z,28.24
2022-08-26T19:57:34.692Z,28.24
2022-08-26T19:59:39.206Z,28.26
2022-08-26T20:01:43.675Z,28.26
2022-08-26T20:03:57.771Z,28.26
2022-08-26T20:06:02.393Z,28.26
2022-08-26T20:08:07.206Z,28.27
2022-08-26T20:10:25.965Z,28.29
2022-08-26T20:12:30.484Z,28.26
2022-08-26T20:14:35.213Z,28.23
2022-08-26T20:16:39.998Z,28.12
2022-08-26T20:18:44.755Z,28.05
2022-08-26T20:20:49.229Z,28.03
2022-08-26T20:22:53.913Z,28.04
2022-08-26T20:24:58.640Z,28.07
2022-08-26T20:27:07.428Z,28.06
2022-08-26T20:29:12.685Z,28.06
2022-08-26T20:31:17.618Z,28.08
2022-08-26T20:33:22.435Z,28.06
2022-08-26T20:35:27.265Z,28.01
2022-08-26T20:37:32.100Z,27.97
2022-08-26T20:39:36.926Z,27.95
2022-08-26T20:41:44.232Z,27.91
2022-08-26T20:43:48.924Z,27.88
2022-08-26T20:45:53.797Z,27.87
2022-08-26T20:47:58.679Z,27.87
2022-08-26T20:50:03.401Z,27.88
2022-08-26T20:52:08.231Z,27.87
2022-08-26T20:54:13.460Z,27.88
2022-08-26T20:56:18.286Z,27.87
2022-08-26T20:58:23.010Z,27.85
2022-08-26T21:00:27.811Z,27.83
2022-08-26T21:02:33.611Z,27.83
2022-08-26T21:04:38.475Z,27.81
2022-08-26T21:06:45.147Z,27.8
2022-08-26T21:08:58.193Z,27.78
2022-08-26T21:11:03.536Z,27.71
2022-08-26T21:13:12.982Z,27.7
2022-08-26T21:15:17.794Z,27.68
2022-08-26T21:17:22.623Z,27.64
2022-08-26T21:19:27.349Z,27.6
2022-08-26T21:21:32.170Z,27.58
2022-08-26T21:23:36.804Z,27.57
2022-08-26T21:25:44.186Z,27.55
2022-08-26T21:27:48.957Z,27.55
2022-08-26T21:29:53.728Z,27.54
2022-08-26T21:31:58.534Z,27.52
2022-08-26T21:34:03.390Z,27.52
2022-08-26T21:36:08.205Z,27.52
2022-08-26T21:38:12.936Z,27.5
2022-08-26T21:40:17.799Z,27.52
2022-08-26T21:42:22.990Z,27.55
2022-08-26T21:44:27.731Z,27.56
2022-08-26T21:46:32.440Z,27.57
2022-08-26T21:48:37.268Z,27.56
2022-08-26T21:50:42.098Z,27.57
2022-08-26T21:52:46.923Z,27.56
2022-08-26T21:54:51.650Z,27.54
2022-08-26T21:56:57.194Z,27.52
2022-08-26T21:59:01.915Z,27.52
2022-08-26T22:01:06.694Z,27.53
2022-08-26T22:03:11.463Z,27.53
2022-08-26T22:05:16.288Z,27.52
2022-08-26T22:07:21.031Z,27.51
2022-08-26T22:09:25.840Z,27.46
2022-08-26T22:11:30.671Z,27.45
2022-08-26T22:13:35.392Z,27.45
2022-08-26T22:15:40.107Z,27.44
2022-08-26T22:17:44.731Z,27.44
2022-08-26T22:19:49.561Z,27.44
2022-08-26T22:21:55.513Z,27.46
2022-08-26T22:24:00.239Z,27.49
2022-08-26T22:26:05.063Z,27.52
2022-08-26T22:28:09.937Z,27.55
2022-08-26T22:30:14.943Z,27.57
2022-08-26T22:32:19.744Z,27.64
2022-08-26T22:34:24.575Z,27.69
2022-08-26T22:36:29.402Z,27.76
2022-08-26T22:38:34.226Z,27.79
2022-08-26T22:40:38.947Z,27.81
2022-08-26T22:42:43.673Z,27.85
2022-08-26T22:45:04.268Z,27.87
2022-08-26T22:47:10.365Z,27.89
2022-08-26T22:49:16.176Z,27.9
2022-08-26T22:51:20.896Z,27.89
2022-08-26T22:53:25.726Z,27.9
2022-08-26T22:55:30.444Z,27.9
2022-08-26T22:57:35.170Z,27.9
2022-08-26T22:59:39.902Z,27.89
2022-08-26T23:01:47.197Z,27.9
2022-08-26T23:03:52.004Z,27.93
2022-08-26T23:05:56.665Z,27.95
2022-08-26T23:08:01.449Z,27.94
2022-08-26T23:10:06.408Z,27.93
2022-08-26T23:12:11.212Z,27.94
2022-08-26T23:14:16.040Z,27.94
2022-08-26T23:16:20.761Z,27.95
2022-08-26T23:18:25.788Z,27.93
2022-08-26T23:20:30.615Z,27.96
2022-08-26T23:22:35.440Z,27.94
2022-08-26T23:24:40.165Z,27.95
2022-08-26T23:26:44.991Z,27.96
2022-08-26T23:28:49.710Z,27.96
2022-08-26T23:30:54.539Z,27.97
2022-08-26T23:32:59.469Z,27.96
2022-08-26T23:35:04.190Z,27.94
2022-08-26T23:37:09.014Z,27.95
2022-08-26T23:39:13.666Z,27.94
2022-08-26T23:41:18.465Z,27.97
2022-08-26T23:43:23.293Z,27.96
2022-08-26T23:45:28.086Z,27.95
2022-08-26T23:47:32.956Z,27.94
2022-08-26T23:49:37.775Z,27.93
2022-08-26T23:51:42.396Z,27.93
2022-08-26T23:53:51.932Z,27.93
2022-08-26T23:55:56.754Z,27.93
2022-08-26T23:58:01.480Z,27.94
